Time;durP1;ratioP1;P1;durP2;ratioP2;P2;SDS_P1;SDS_P2;PMS_P1;PMS_P2;Temp;Humidity;BMP_temperature;BMP_pressure;BME280_temperature;BME280_humidity;BME280_pressure;Samples;Min_cycle;Max_cycle;Signal;HPM_P1;HPM_P2
2021/12/31 00:00:16;;;;;;;13.32;3.30;;;12.80;99.90;;;;;;5012521;28;20435;-72
2021/12/31 00:02:42;;;;;;;12.30;2.55;;;12.80;99.90;;;;;;5010985;28;20076;-72
2021/12/31 00:05:08;;;;;;;14.40;2.90;;;12.80;99.90;;;;;;5026099;28;20486;-72
2021/12/31 00:07:34;;;;;;;14.25;2.90;;;12.80;99.90;;;;;;5012758;28;20042;-72
2021/12/31 00:10:00;;;;;;;11.20;3.00;;;12.80;99.90;;;;;;5014296;28;20080;-72
2021/12/31 00:12:27;;;;;;;13.02;2.97;;;12.80;99.90;;;;;;5029255;28;20124;-71
2021/12/31 00:14:53;;;;;;;10.88;3.50;;;12.80;99.90;;;;;;5014320;28;20084;-72
2021/12/31 00:17:18;;;;;;;10.20;3.17;;;12.80;99.90;;;;;;5014629;28;20038;-72
2021/12/31 00:19:48;;;;;;;13.05;3.15;;;12.80;99.90;;;;;;5014519;28;20041;-72
2021/12/31 00:24:45;;;;;;;12.10;3.97;;;12.80;99.90;;;;;;5019712;28;20056;-72
2021/12/31 00:27:10;;;;;;;9.13;2.70;;;12.80;99.90;;;;;;5033220;28;20037;-72
2021/12/31 00:29:36;;;;;;;14.48;3.42;;;12.80;99.90;;;;;;5034218;28;20060;-72
2021/12/31 00:32:01;;;;;;;10.20;2.72;;;12.80;99.90;;;;;;5033812;28;20037;-72
2021/12/31 00:34:27;;;;;;;15.68;3.72;;;12.80;99.90;;;;;;5032761;28;20037;-72
2021/12/31 00:36:52;;;;;;;10.77;3.00;;;12.80;99.90;;;;;;5032835;28;20042;-72
2021/12/31 00:39:18;;;;;;;13.45;3.03;;;12.80;99.90;;;;;;5033858;28;20049;-72
2021/12/31 00:41:44;;;;;;;10.98;2.90;;;12.80;99.90;;;;;;5032236;28;20049;-72
2021/12/31 00:44:09;;;;;;;12.43;2.92;;;12.80;99.90;;;;;;5033976;28;20037;-72
2021/12/31 00:46:35;;;;;;;13.43;3.80;;;12.80;99.90;;;;;;5032466;28;20156;-72
2021/12/31 00:49:03;;;;;;;16.92;3.75;;;12.80;99.90;;;;;;5033798;28;20566;-72
2021/12/31 00:51:29;;;;;;;14.02;3.22;;;12.80;99.90;;;;;;5033064;28;20532;-72
2021/12/31 00:53:55;;;;;;;12.55;3.53;;;12.90;99.90;;;;;;5033348;28;20069;-72
2021/12/31 00:56:21;;;;;;;13.00;3.25;;;12.80;99.90;;;;;;5033404;28;20131;-72
2021/12/31 00:58:46;;;;;;;11.02;3.33;;;12.80;99.90;;;;;;5032109;28;20044;-72
2021/12/31 01:01:17;;;;;;;10.73;3.45;;;12.90;99.90;;;;;;5033333;28;20073;-72
2021/12/31 01:03:43;;;;;;;15.63;3.47;;;12.90;99.90;;;;;;5032040;28;20375;-72
2021/12/31 01:06:09;;;;;;;17.65;4.00;;;12.90;99.90;;;;;;5033079;28;20043;-72
2021/12/31 01:08:35;;;;;;;13.57;3.70;;;12.90;99.90;;;;;;5031737;28;20087;-72
2021/12/31 01:11:00;;;;;;;9.85;3.03;;;12.90;99.90;;;;;;5035318;28;20118;-72
2021/12/31 01:13:34;;;;;;;11.02;3.35;;;12.90;99.90;;;;;;5018975;28;20039;-72
2021/12/31 01:16:02;;;;;;;9.40;3.63;;;12.90;99.90;;;;;;5033231;28;20045;-72
2021/12/31 01:21:18;;;;;;;10.38;3.35;;;12.90;99.90;;;;;;5009498;28;20053;-72
2021/12/31 01:23:44;;;;;;;10.38;3.08;;;12.90;99.90;;;;;;5038773;28;20449;-72
2021/12/31 01:26:10;;;;;;;9.45;3.17;;;12.90;99.90;;;;;;5038627;28;20049;-72
2021/12/31 01:28:36;;;;;;;8.55;3.13;;;12.90;99.90;;;;;;5037292;28;20091;-72
2021/12/31 01:31:02;;;;;;;11.05;3.13;;;12.90;99.90;;;;;;5033012;28;20046;-72
2021/12/31 01:33:28;;;;;;;11.52;3.88;;;12.90;99.90;;;;;;5038483;28;20037;-72
2021/12/31 01:35:54;;;;;;;9.73;3.17;;;12.90;99.90;;;;;;5036527;28;20084;-72
2021/12/31 01:38:20;;;;;;;6.18;3.20;;;12.90;99.90;;;;;;5014994;28;20048;-72
2021/12/31 01:40:45;;;;;;;13.43;3.25;;;12.90;99.90;;;;;;5032883;28;20068;-72
2021/12/31 01:43:12;;;;;;;9.18;2.97;;;12.90;99.90;;;;;;5031334;28;20485;-72
2021/12/31 01:45:44;;;;;;;11.65;3.13;;;12.90;99.90;;;;;;5014837;28;20121;-72
2021/12/31 01:48:22;;;;;;;11.32;3.58;;;12.90;99.90;;;;;;5014916;28;20052;-73
2021/12/31 01:50:49;;;;;;;12.43;3.35;;;12.90;99.90;;;;;;5032588;28;20034;-72
2021/12/31 01:53:16;;;;;;;9.65;3.20;;;12.90;99.90;;;;;;5032345;28;20034;-72
2021/12/31 01:55:42;;;;;;;11.00;3.58;;;12.90;99.90;;;;;;5032462;28;20046;-71
2021/12/31 01:58:09;;;;;;;12.52;3.72;;;12.90;99.90;;;;;;5032552;28;20433;-72
2021/12/31 02:00:36;;;;;;;15.15;3.47;;;12.90;99.90;;;;;;5032331;28;20037;-72
2021/12/31 02:03:04;;;;;;;13.60;3.88;;;12.90;99.90;;;;;;5030702;28;20099;-72
2021/12/31 02:05:30;;;;;;;8.70;3.47;;;12.90;99.90;;;;;;5030900;28;20049;-72
2021/12/31 02:07:56;;;;;;;8.93;3.58;;;13.00;99.90;;;;;;5014380;28;20045;-72
2021/12/31 02:10:22;;;;;;;9.70;3.78;;;13.00;99.90;;;;;;5013904;28;20512;-72
2021/12/31 02:12:48;;;;;;;8.48;4.18;;;13.00;99.90;;;;;;5030444;28;20124;-72
2021/12/31 02:15:16;;;;;;;9.93;4.18;;;13.00;99.90;;;;;;5030758;28;20029;-72
2021/12/31 02:17:44;;;;;;;11.23;3.92;;;13.00;99.90;;;;;;5032028;28;20049;-72
2021/12/31 02:20:10;;;;;;;8.05;4.22;;;13.00;99.90;;;;;;5014106;28;20042;-73
2021/12/31 02:22:38;;;;;;;10.15;4.43;;;13.00;99.90;;;;;;5031826;28;20095;-72
2021/12/31 02:25:06;;;;;;;10.38;4.00;;;13.00;99.90;;;;;;5036507;28;20033;-72
2021/12/31 02:27:36;;;;;;;14.30;4.10;;;13.00;99.90;;;;;;5038107;28;20045;-72
2021/12/31 02:30:01;;;;;;;8.63;4.38;;;13.00;99.90;;;;;;5030490;28;20056;-72
2021/12/31 02:32:27;;;;;;;10.45;4.18;;;13.00;99.90;;;;;;5031588;28;20715;-72
2021/12/31 02:34:52;;;;;;;12.98;4.97;;;13.00;99.90;;;;;;5019916;28;20029;-72
2021/12/31 02:37:18;;;;;;;9.05;4.30;;;13.00;99.90;;;;;;5037695;28;20041;-72
2021/12/31 02:39:44;;;;;;;16.35;5.03;;;13.10;99.90;;;;;;5039957;28;20025;-72
2021/12/31 02:42:10;;;;;;;10.32;4.30;;;13.10;99.90;;;;;;5038053;28;20513;-72
2021/12/31 02:44:36;;;;;;;13.38;4.60;;;13.10;99.90;;;;;;5033033;28;20150;-72
2021/12/31 02:47:04;;;;;;;11.43;5.07;;;13.10;99.90;;;;;;5037215;28;20037;-72
2021/12/31 02:49:34;;;;;;;9.65;5.07;;;13.10;99.90;;;;;;5033043;28;20057;-73
2021/12/31 02:52:02;;;;;;;12.10;4.95;;;13.10;99.90;;;;;;5013150;28;20554;-72
2021/12/31 02:54:29;;;;;;;8.98;4.65;;;13.10;99.90;;;;;;5030404;28;20087;-73
2021/12/31 02:56:55;;;;;;;10.48;4.93;;;13.10;99.90;;;;;;5030058;28;20045;-73
2021/12/31 02:59:21;;;;;;;9.13;4.90;;;13.10;99.90;;;;;;5013519;28;20051;-72
2021/12/31 03:01:49;;;;;;;10.13;5.03;;;13.20;99.90;;;;;;5029630;28;20041;-71
2021/12/31 03:04:16;;;;;;;11.20;5.05;;;13.10;99.90;;;;;;5029914;28;20490;-71
2021/12/31 03:06:43;;;;;;;10.35;5.30;;;13.20;99.90;;;;;;5030020;28;20091;-71
2021/12/31 03:09:10;;;;;;;11.85;5.70;;;13.20;99.90;;;;;;5031149;28;20794;-71
2021/12/31 03:11:37;;;;;;;10.18;4.95;;;13.20;99.90;;;;;;5029440;28;20125;-71
2021/12/31 03:14:04;;;;;;;11.18;5.78;;;13.20;99.90;;;;;;5013132;28;20045;-72
2021/12/31 03:16:30;;;;;;;10.88;5.93;;;13.20;99.90;;;;;;5029977;28;20047;-71
2021/12/31 03:18:56;;;;;;;10.40;5.20;;;13.20;99.90;;;;;;5029558;28;20033;-71
2021/12/31 03:21:22;;;;;;;12.88;5.40;;;13.20;99.90;;;;;;5029524;28;20079;-71
2021/12/31 03:23:50;;;;;;;9.02;4.80;;;13.20;99.90;;;;;;5030593;28;20041;-71
2021/12/31 03:26:16;;;;;;;13.25;5.43;;;13.30;99.90;;;;;;5031089;28;20041;-71
2021/12/31 03:28:42;;;;;;;8.20;4.50;;;13.30;99.90;;;;;;5030746;28;20136;-71
2021/12/31 03:31:07;;;;;;;10.70;4.90;;;13.30;99.90;;;;;;5031105;28;20554;-71
2021/12/31 03:33:33;;;;;;;8.07;4.88;;;13.30;99.90;;;;;;5012838;28;20038;-71
2021/12/31 03:35:58;;;;;;;9.43;4.93;;;13.30;99.90;;;;;;5029604;28;20037;-71
2021/12/31 03:38:24;;;;;;;11.30;4.90;;;13.30;99.90;;;;;;5030923;28;20095;-71
2021/12/31 03:40:50;;;;;;;10.48;4.55;;;13.30;99.90;;;;;;5038676;28;20037;-71
2021/12/31 03:43:15;;;;;;;10.13;5.30;;;13.30;99.90;;;;;;5039266;28;20080;-71
2021/12/31 03:45:42;;;;;;;9.77;4.93;;;13.30;99.90;;;;;;5035062;28;20124;-71
2021/12/31 03:48:07;;;;;;;10.25;5.07;;;13.30;99.90;;;;;;5034813;28;20057;-71
2021/12/31 03:50:33;;;;;;;11.07;4.80;;;13.30;99.90;;;;;;5033443;28;20386;-71
2021/12/31 03:52:59;;;;;;;7.05;4.30;;;13.30;99.90;;;;;;5034431;28;20041;-71
2021/12/31 03:55:24;;;;;;;8.18;5.05;;;13.30;99.90;;;;;;5034670;28;20459;-71
2021/12/31 03:57:50;;;;;;;8.25;4.35;;;13.30;99.90;;;;;;5033495;28;20034;-71
2021/12/31 04:00:16;;;;;;;7.07;4.20;;;13.30;99.90;;;;;;5033023;28;20471;-71
2021/12/31 04:02:42;;;;;;;12.75;5.05;;;13.30;99.90;;;;;;5033028;28;20090;-71
2021/12/31 04:05:08;;;;;;;11.48;4.85;;;13.30;99.90;;;;;;5034649;28;20121;-71
2021/12/31 04:07:34;;;;;;;8.10;4.75;;;13.30;99.90;;;;;;5034932;28;20052;-71
2021/12/31 04:10:00;;;;;;;10.55;5.25;;;13.40;99.90;;;;;;5033765;28;20120;-71
2021/12/31 04:12:25;;;;;;;8.18;4.95;;;13.30;99.90;;;;;;5032494;28;20038;-71
2021/12/31 04:14:51;;;;;;;12.07;4.90;;;13.30;99.90;;;;;;5033007;28;20048;-71
2021/12/31 04:17:16;;;;;;;12.02;5.35;;;13.30;99.90;;;;;;5032972;28;20572;-71
2021/12/31 04:19:43;;;;;;;7.10;5.28;;;13.30;99.90;;;;;;5049537;28;20539;-71
2021/12/31 04:22:11;;;;;;;10.35;5.32;;;13.30;99.90;;;;;;5033778;28;20121;-72
2021/12/31 04:27:09;;;;;;;8.02;4.57;;;13.30;99.90;;;;;;5033458;28;20343;-72
2021/12/31 04:29:35;;;;;;;10.70;4.95;;;13.30;99.90;;;;;;5033883;28;20045;-72
2021/12/31 04:32:01;;;;;;;11.95;4.88;;;13.30;99.90;;;;;;5033779;28;20827;-72
2021/12/31 04:34:27;;;;;;;8.85;4.95;;;13.30;99.90;;;;;;5034066;28;20131;-72
2021/12/31 04:36:53;;;;;;;9.48;4.93;;;13.30;99.90;;;;;;5033602;28;20069;-72
2021/12/31 04:39:18;;;;;;;7.88;4.85;;;13.30;99.90;;;;;;5033860;28;20084;-72
2021/12/31 04:41:44;;;;;;;7.15;4.88;;;13.30;99.90;;;;;;5033232;28;20041;-72
2021/12/31 04:44:10;;;;;;;8.88;4.20;;;13.30;99.90;;;;;;5032491;28;20111;-72
2021/12/31 04:46:35;;;;;;;9.43;4.13;;;13.40;99.90;;;;;;5033946;28;20073;-72
2021/12/31 04:49:01;;;;;;;11.07;4.10;;;13.30;99.90;;;;;;5033717;28;20076;-72
2021/12/31 04:51:26;;;;;;;13.65;4.22;;;13.30;99.90;;;;;;5032327;28;20570;-72
2021/12/31 04:53:52;;;;;;;6.35;3.35;;;13.30;99.90;;;;;;5031542;28;20497;-72
2021/12/31 04:56:17;;;;;;;8.43;3.88;;;13.30;99.90;;;;;;5038917;28;20041;-71
2021/12/31 04:58:43;;;;;;;7.47;3.58;;;13.30;99.90;;;;;;5041617;28;20029;-72
2021/12/31 05:01:09;;;;;;;7.25;2.85;;;13.30;99.90;;;;;;5034432;28;20120;-72
2021/12/31 05:03:34;;;;;;;7.85;3.35;;;13.30;99.90;;;;;;5033256;28;20437;-72
2021/12/31 05:06:00;;;;;;;11.60;3.17;;;13.40;99.90;;;;;;5032155;28;20164;-71
2021/12/31 05:08:25;;;;;;;7.00;2.88;;;13.40;99.90;;;;;;5032036;28;20155;-71
2021/12/31 05:10:51;;;;;;;7.00;3.13;;;13.40;99.90;;;;;;5031692;28;20067;-71
2021/12/31 05:13:19;;;;;;;4.97;2.40;;;13.40;99.90;;;;;;5015106;28;20046;-72
2021/12/31 05:15:46;;;;;;;4.43;2.67;;;13.40;99.90;;;;;;5032025;28;20077;-71
2021/12/31 05:18:15;;;;;;;2.85;2.20;;;13.40;99.90;;;;;;5015319;28;20065;-72
2021/12/31 05:20:41;;;;;;;5.72;2.58;;;13.40;99.90;;;;;;5031718;28;20548;-72
2021/12/31 05:23:07;;;;;;;7.88;2.60;;;13.40;99.90;;;;;;5032858;28;20041;-71
2021/12/31 05:25:33;;;;;;;4.38;2.47;;;13.40;99.90;;;;;;5032903;28;20087;-71
2021/12/31 05:27:59;;;;;;;5.65;2.40;;;13.40;99.90;;;;;;5031599;28;20549;-72
2021/12/31 05:30:27;;;;;;;8.02;2.30;;;13.40;99.90;;;;;;5014799;28;20537;-72
2021/12/31 05:32:53;;;;;;;7.50;2.30;;;13.40;99.90;;;;;;5031270;28;20133;-72
2021/12/31 05:35:19;;;;;;;6.70;2.00;;;13.40;99.90;;;;;;5032397;28;20061;-72
2021/12/31 05:37:44;;;;;;;5.90;1.92;;;13.40;99.90;;;;;;5032888;28;20049;-72
2021/12/31 05:40:11;;;;;;;4.18;1.88;;;13.40;99.90;;;;;;5015542;28;20040;-72
2021/12/31 05:42:37;;;;;;;6.47;1.88;;;13.40;99.90;;;;;;5031696;28;20053;-72
2021/12/31 05:45:03;;;;;;;5.63;2.33;;;13.40;99.90;;;;;;5032790;28;20041;-71
2021/12/31 05:47:29;;;;;;;4.05;1.80;;;13.30;99.90;;;;;;5032569;28;20049;-71
2021/12/31 05:49:55;;;;;;;5.45;2.00;;;13.30;99.90;;;;;;5032264;28;20038;-71
2021/12/31 05:52:21;;;;;;;7.53;2.30;;;13.30;99.90;;;;;;5030816;28;20445;-72
2021/12/31 05:54:47;;;;;;;7.63;1.92;;;13.30;99.90;;;;;;5031442;28;20041;-72
2021/12/31 05:57:12;;;;;;;4.05;2.17;;;13.20;99.90;;;;;;5032304;28;20435;-71
2021/12/31 05:59:38;;;;;;;5.80;2.10;;;13.20;99.90;;;;;;5032350;28;20037;-72
2021/12/31 06:02:03;;;;;;;7.70;2.72;;;13.20;99.90;;;;;;5032003;28;20045;-71
2021/12/31 06:04:29;;;;;;;6.15;2.33;;;13.10;99.90;;;;;;5031339;28;20041;-72
2021/12/31 06:06:55;;;;;;;5.22;2.13;;;13.20;99.90;;;;;;5032344;28;20033;-71
2021/12/31 06:09:20;;;;;;;7.50;2.38;;;13.10;99.90;;;;;;5032173;28;20037;-72
2021/12/31 06:11:46;;;;;;;10.48;2.50;;;13.10;99.90;;;;;;5031870;28;20041;-71
2021/12/31 06:14:12;;;;;;;6.65;2.15;;;13.10;99.90;;;;;;5032226;28;20067;-71
2021/12/31 06:16:42;;;;;;;7.78;2.47;;;13.10;99.90;;;;;;5036678;28;20033;-72
2021/12/31 06:19:12;;;;;;;4.30;2.03;;;13.10;99.90;;;;;;5023825;28;20524;-71
2021/12/31 06:21:40;;;;;;;3.45;2.17;;;13.10;99.90;;;;;;5034297;28;20037;-72
2021/12/31 06:24:07;;;;;;;6.35;1.83;;;13.10;99.90;;;;;;5030791;28;20707;-71
2021/12/31 06:26:33;;;;;;;6.72;2.50;;;13.00;99.90;;;;;;5031810;28;20390;-72
2021/12/31 06:28:59;;;;;;;4.72;2.53;;;13.00;99.90;;;;;;5030586;28;20185;-71
2021/12/31 06:31:25;;;;;;;5.30;2.20;;;13.00;99.90;;;;;;5031669;28;20049;-72
2021/12/31 06:33:51;;;;;;;5.95;2.50;;;13.00;99.90;;;;;;5031376;28;20046;-72
2021/12/31 06:36:17;;;;;;;4.32;2.60;;;13.00;99.90;;;;;;5031592;28;20044;-72
2021/12/31 06:38:43;;;;;;;2.90;2.30;;;13.00;99.90;;;;;;5013783;28;20069;-72
2021/12/31 06:41:09;;;;;;;5.55;2.45;;;13.00;99.90;;;;;;5030052;28;20049;-72
2021/12/31 06:43:35;;;;;;;8.57;2.42;;;13.00;99.90;;;;;;5031270;28;20041;-72
2021/12/31 06:46:01;;;;;;;5.78;2.10;;;13.00;99.90;;;;;;5046815;28;20041;-71
2021/12/31 06:48:26;;;;;;;6.25;2.53;;;12.90;99.90;;;;;;5030201;28;20454;-71
2021/12/31 06:50:52;;;;;;;6.68;2.50;;;12.90;99.90;;;;;;5031019;28;20063;-71
2021/12/31 06:53:18;;;;;;;7.90;2.80;;;12.90;99.90;;;;;;5031168;28;20029;-71
2021/12/31 06:55:43;;;;;;;6.20;2.72;;;12.90;99.90;;;;;;5031364;28;20037;-72
2021/12/31 06:58:09;;;;;;;5.97;2.55;;;12.90;99.90;;;;;;5029870;28;20079;-71
2021/12/31 07:00:35;;;;;;;7.80;3.03;;;12.90;99.90;;;;;;5029846;28;20041;-71
2021/12/31 07:03:12;;;;;;;3.92;3.38;;;12.80;99.90;;;;;;5029556;28;20037;-71
2021/12/31 07:05:42;;;;;;;7.32;3.03;;;12.80;99.90;;;;;;5029807;28;20046;-71
2021/12/31 07:08:09;;;;;;;6.55;2.75;;;12.80;99.90;;;;;;5030269;28;20438;-71
2021/12/31 07:10:34;;;;;;;5.57;2.88;;;12.80;99.90;;;;;;5031087;28;20056;-71
2021/12/31 07:13:05;;;;;;;9.80;3.33;;;12.80;99.90;;;;;;5030682;28;20041;-71
2021/12/31 07:15:31;;;;;;;8.57;3.00;;;12.70;99.90;;;;;;5029828;28;20091;-71
2021/12/31 07:17:57;;;;;;;8.55;3.17;;;12.80;99.90;;;;;;5029805;28;20081;-71
2021/12/31 07:20:22;;;;;;;7.05;3.10;;;12.70;99.90;;;;;;5030958;28;20604;-71
2021/12/31 07:22:48;;;;;;;9.57;4.03;;;12.70;99.90;;;;;;5029443;28;20263;-72
2021/12/31 07:25:14;;;;;;;6.65;3.17;;;12.70;99.90;;;;;;5030801;28;20494;-71
2021/12/31 07:27:40;;;;;;;5.95;2.90;;;12.70;99.90;;;;;;5030840;28;20067;-72
2021/12/31 07:30:06;;;;;;;6.07;3.35;;;12.70;99.90;;;;;;5030939;28;20064;-72
2021/12/31 07:32:35;;;;;;;10.23;2.72;;;12.70;99.90;;;;;;5030688;28;20045;-72
2021/12/31 07:35:01;;;;;;;7.82;3.05;;;12.60;99.90;;;;;;5028584;28;20104;-72
2021/12/31 07:37:26;;;;;;;6.68;2.92;;;12.60;99.90;;;;;;5031680;28;20046;-73
2021/12/31 07:39:59;;;;;;;5.95;3.80;;;12.60;99.90;;;;;;5035341;28;20132;-72
2021/12/31 07:42:24;;;;;;;11.48;3.28;;;12.60;99.90;;;;;;5024981;28;20581;-71
2021/12/31 07:44:50;;;;;;;7.82;3.47;;;12.60;99.90;;;;;;5008173;28;20132;-71
2021/12/31 07:47:15;;;;;;;8.50;3.80;;;12.50;99.90;;;;;;5027464;28;20068;-72
2021/12/31 07:49:41;;;;;;;11.55;3.50;;;12.50;99.90;;;;;;5028033;28;20092;-71
2021/12/31 07:52:07;;;;;;;4.72;3.10;;;12.50;99.90;;;;;;5029153;28;20103;-71
2021/12/31 07:54:32;;;;;;;7.00;3.08;;;12.40;99.90;;;;;;5029639;28;20045;-72
2021/12/31 07:56:58;;;;;;;8.52;3.38;;;12.50;99.90;;;;;;5028967;28;20041;-71
2021/12/31 07:59:23;;;;;;;4.65;2.85;;;12.40;99.90;;;;;;5030602;28;20048;-71
2021/12/31 08:01:49;;;;;;;8.13;3.63;;;12.50;99.90;;;;;;5029307;28;20502;-71
2021/12/31 08:04:14;;;;;;;10.75;3.40;;;12.40;99.90;;;;;;5029420;28;20037;-72
2021/12/31 08:06:40;;;;;;;4.68;3.15;;;12.40;99.90;;;;;;5029118;28;20046;-71
2021/12/31 08:09:05;;;;;;;7.20;3.40;;;12.40;99.90;;;;;;5029316;28;20056;-71
2021/12/31 08:11:31;;;;;;;8.35;3.50;;;12.40;99.90;;;;;;5030351;28;20135;-71
2021/12/31 08:13:56;;;;;;;6.18;3.88;;;12.40;99.90;;;;;;5025982;28;20045;-72
2021/12/31 08:16:22;;;;;;;7.43;3.75;;;12.40;99.90;;;;;;5025564;28;20071;-72
2021/12/31 08:18:48;;;;;;;8.32;3.78;;;12.40;99.90;;;;;;4992349;28;20037;-72
2021/12/31 08:21:13;;;;;;;7.70;3.10;;;12.40;99.90;;;;;;5008503;28;20045;-72
2021/12/31 08:23:39;;;;;;;6.75;3.47;;;12.40;99.90;;;;;;5008168;28;20041;-71
2021/12/31 08:26:05;;;;;;;7.43;3.60;;;12.40;99.90;;;;;;5008375;28;20068;-72
2021/12/31 08:28:31;;;;;;;7.50;3.70;;;12.50;99.90;;;;;;5009986;28;20604;-72
2021/12/31 08:30:58;;;;;;;9.60;3.30;;;12.50;99.90;;;;;;5012282;28;20128;-72
2021/12/31 08:33:25;;;;;;;5.68;3.40;;;12.50;99.90;;;;;;5011675;28;20044;-72
2021/12/31 08:35:51;;;;;;;7.05;4.35;;;12.50;99.90;;;;;;5012144;28;20033;-72
2021/12/31 08:38:16;;;;;;;5.75;3.65;;;12.50;99.90;;;;;;5012186;28;20102;-71
2021/12/31 08:40:44;;;;;;;7.13;3.20;;;12.50;99.90;;;;;;5011945;28;20073;-70
2021/12/31 08:43:10;;;;;;;6.45;3.45;;;12.60;99.90;;;;;;5011428;28;20064;-71
2021/12/31 08:45:36;;;;;;;7.10;3.03;;;12.60;99.90;;;;;;5011662;28;20553;-71
2021/12/31 08:48:02;;;;;;;7.32;3.72;;;12.60;99.90;;;;;;5011710;28;20052;-71
2021/12/31 08:50:28;;;;;;;6.90;3.40;;;12.60;99.90;;;;;;5013105;28;20463;-72
2021/12/31 08:52:54;;;;;;;10.52;3.53;;;12.60;99.90;;;;;;5039501;28;20045;-72
2021/12/31 08:55:20;;;;;;;8.30;3.97;;;12.60;99.90;;;;;;5041518;28;20444;-72
2021/12/31 08:57:47;;;;;;;7.78;3.35;;;12.60;99.90;;;;;;5031545;28;20033;-71
2021/12/31 09:00:13;;;;;;;6.20;3.70;;;12.60;99.90;;;;;;5031307;28;20045;-71
2021/12/31 09:02:39;;;;;;;10.30;3.60;;;12.60;99.90;;;;;;5031208;28;20060;-71
2021/12/31 09:05:06;;;;;;;7.22;3.83;;;12.60;99.90;;;;;;5031252;28;20046;-72
2021/12/31 09:07:32;;;;;;;9.25;3.33;;;12.60;99.90;;;;;;5031396;28;20396;-71
2021/12/31 09:09:58;;;;;;;8.35;3.33;;;12.60;99.90;;;;;;5031128;28;20156;-71
2021/12/31 09:12:24;;;;;;;7.15;3.30;;;12.60;99.90;;;;;;5029848;28;20410;-72
2021/12/31 09:14:49;;;;;;;8.88;3.90;;;12.70;99.90;;;;;;5030889;28;20037;-72
2021/12/31 09:17:15;;;;;;;7.50;3.50;;;12.60;99.90;;;;;;5029874;28;20195;-71
2021/12/31 09:19:41;;;;;;;7.93;3.65;;;12.60;99.90;;;;;;5029702;28;20033;-72
2021/12/31 09:22:06;;;;;;;6.35;3.70;;;12.60;99.90;;;;;;5030592;28;20493;-72
2021/12/31 09:24:32;;;;;;;7.53;4.20;;;12.70;99.90;;;;;;5030960;28;20528;-72
2021/12/31 09:26:58;;;;;;;6.90;4.10;;;12.70;99.90;;;;;;5030701;28;20516;-73
2021/12/31 09:29:23;;;;;;;7.97;3.45;;;12.60;99.90;;;;;;5030817;28;20038;-72
2021/12/31 09:31:53;;;;;;;8.70;3.88;;;12.70;99.90;;;;;;5030169;28;20497;-72
2021/12/31 09:34:19;;;;;;;7.53;4.15;;;12.70;99.90;;;;;;5030947;28;20073;-72
2021/12/31 09:36:45;;;;;;;6.72;4.20;;;12.70;99.90;;;;;;5030813;28;20124;-73
2021/12/31 09:39:11;;;;;;;7.88;4.57;;;12.70;99.90;;;;;;5029625;28;20520;-73
2021/12/31 09:41:36;;;;;;;9.68;3.85;;;12.70;99.90;;;;;;5030179;28;20077;-72
2021/12/31 09:44:02;;;;;;;8.00;4.85;;;12.70;99.90;;;;;;5030298;28;20453;-73
2021/12/31 09:46:28;;;;;;;6.30;3.97;;;12.70;99.90;;;;;;5032111;28;20052;-72
2021/12/31 09:48:53;;;;;;;8.82;4.70;;;12.70;99.90;;;;;;5032592;28;20106;-72
2021/12/31 09:51:20;;;;;;;8.32;4.63;;;12.70;99.90;;;;;;5030652;28;20077;-73
2021/12/31 09:53:46;;;;;;;9.20;4.22;;;12.70;99.90;;;;;;5029751;28;20045;-72
2021/12/31 09:56:13;;;;;;;6.63;3.67;;;12.70;99.90;;;;;;5029858;28;20030;-72
2021/12/31 09:58:39;;;;;;;6.15;3.88;;;12.70;99.90;;;;;;5030056;28;20041;-73
2021/12/31 10:01:08;;;;;;;8.30;3.90;;;12.70;99.90;;;;;;5030283;28;20041;-73
2021/12/31 10:03:34;;;;;;;6.70;3.30;;;12.70;99.90;;;;;;5031971;28;20045;-72
2021/12/31 10:06:10;;;;;;;5.93;3.50;;;12.70;99.90;;;;;;5035430;28;20052;-72
2021/12/31 10:08:44;;;;;;;11.85;4.63;;;12.70;99.90;;;;;;5034558;28;20504;-73
2021/12/31 10:11:23;;;;;;;9.18;4.43;;;12.70;99.90;;;;;;5030601;28;20053;-72
2021/12/31 10:13:51;;;;;;;4.82;3.33;;;12.70;99.90;;;;;;5031190;28;20041;-73
2021/12/31 10:16:28;;;;;;;8.27;4.30;;;12.70;99.90;;;;;;5031417;28;20561;-73
2021/12/31 10:19:04;;;;;;;7.03;4.35;;;12.70;99.90;;;;;;5029826;28;20034;-72
2021/12/31 10:21:40;;;;;;;7.20;4.10;;;12.70;99.90;;;;;;5028327;28;20037;-74
2021/12/31 10:24:23;;;;;;;9.18;4.22;;;12.70;99.90;;;;;;5029701;28;20048;-72
2021/12/31 10:26:50;;;;;;;;;;;12.70;99.90;;;;;;5030090;28;20045;-73
2021/12/31 10:29:16;;;;;;;8.02;4.38;;;12.70;99.90;;;;;;5029606;28;19921;-71
2021/12/31 10:31:43;;;;;;;9.52;5.38;;;12.70;99.90;;;;;;5030431;28;20056;-74
2021/12/31 10:34:29;;;;;;;9.63;4.10;;;12.70;99.90;;;;;;5030987;28;20052;-72
2021/12/31 10:36:57;;;;;;;7.88;4.43;;;12.70;99.90;;;;;;5030869;28;20041;-72
2021/12/31 10:39:25;;;;;;;8.27;3.47;;;12.70;99.90;;;;;;5029654;28;20482;-72
2021/12/31 10:42:06;;;;;;;8.10;3.35;;;12.70;99.90;;;;;;5028791;28;20045;-72
2021/12/31 10:44:47;;;;;;;11.18;4.28;;;12.70;99.90;;;;;;5030986;28;20048;-73
2021/12/31 10:47:47;;;;;;;6.13;3.85;;;12.60;99.90;;;;;;5029672;28;20053;-72
2021/12/31 10:50:19;;;;;;;6.75;4.22;;;12.60;99.90;;;;;;5021931;28;20151;-72
2021/12/31 10:53:10;;;;;;;6.68;4.15;;;12.70;99.90;;;;;;5030835;28;20064;-72
2021/12/31 10:55:40;;;;;;;8.63;4.30;;;12.70;99.90;;;;;;5029893;28;20064;-72
2021/12/31 10:58:10;;;;;;;6.80;4.28;;;12.60;99.90;;;;;;5029373;28;20042;-71
2021/12/31 11:00:38;;;;;;;7.18;3.88;;;12.70;99.90;;;;;;5031263;28;20041;-72
2021/12/31 11:03:04;;;;;;;9.32;4.07;;;12.70;99.90;;;;;;5029112;28;20132;-73
2021/12/31 11:05:30;;;;;;;11.10;4.50;;;12.70;99.90;;;;;;5033216;28;20060;-73
2021/12/31 11:08:00;;;;;;;7.63;4.80;;;12.70;99.90;;;;;;5031924;28;20429;-72
2021/12/31 11:10:28;;;;;;;8.82;4.85;;;12.70;99.90;;;;;;5030360;28;20033;-72
2021/12/31 11:12:54;;;;;;;8.93;4.15;;;12.70;99.90;;;;;;5029942;28;20051;-71
2021/12/31 11:15:20;;;;;;;10.13;5.05;;;12.70;99.90;;;;;;5029415;28;20539;-72
2021/12/31 11:17:48;;;;;;;16.15;5.00;;;12.70;99.90;;;;;;5035638;28;20034;-72
2021/12/31 11:20:23;;;;;;;8.95;4.45;;;12.80;99.90;;;;;;5031374;28;20077;-71
2021/12/31 11:22:49;;;;;;;9.48;4.53;;;12.80;99.90;;;;;;5028110;28;20075;-73
2021/12/31 11:25:17;;;;;;;8.65;4.88;;;12.80;99.90;;;;;;5030064;28;20038;-72
2021/12/31 11:27:47;;;;;;;7.53;4.78;;;12.80;99.90;;;;;;5028868;28;20520;-72
2021/12/31 11:30:35;;;;;;;8.73;4.53;;;12.80;99.90;;;;;;5028568;28;20383;-72
2021/12/31 11:33:14;;;;;;;6.53;4.85;;;12.80;99.90;;;;;;5028278;28;20050;-72
2021/12/31 11:35:46;;;;;;;13.90;6.65;;;12.80;99.90;;;;;;5028652;28;20117;-73
2021/12/31 11:38:42;;;;;;;15.00;6.20;;;12.70;99.90;;;;;;5028637;28;20038;-72
2021/12/31 11:41:23;;;;;;;11.60;6.57;;;12.80;99.90;;;;;;5028444;28;20283;-72
2021/12/31 11:44:09;;;;;;;11.02;6.55;;;12.80;99.90;;;;;;5029511;28;20053;-72
2021/12/31 11:46:42;;;;;;;12.18;6.20;;;12.80;99.90;;;;;;5028693;28;20037;-72
2021/12/31 11:49:11;;;;;;;11.98;5.95;;;12.70;99.90;;;;;;5029925;28;20045;-72
2021/12/31 11:51:59;;;;;;;12.73;6.22;;;12.70;99.90;;;;;;5028297;28;20076;-72
2021/12/31 11:54:25;;;;;;;9.70;5.15;;;12.70;99.90;;;;;;5028745;28;20458;-72
2021/12/31 11:56:56;;;;;;;13.48;5.53;;;12.70;99.90;;;;;;5028472;28;20072;-72
2021/12/31 11:59:21;;;;;;;11.90;5.72;;;12.70;99.90;;;;;;5028390;28;20038;-72
2021/12/31 12:01:52;;;;;;;8.82;5.10;;;12.70;99.90;;;;;;5029180;28;20620;-72
2021/12/31 12:04:21;;;;;;;12.57;6.07;;;12.70;99.90;;;;;;5032942;28;20088;-72
2021/12/31 12:06:54;;;;;;;9.20;5.63;;;12.70;99.90;;;;;;5032069;28;20057;-71
2021/12/31 12:09:20;;;;;;;12.55;6.60;;;12.70;99.90;;;;;;5032502;28;20049;-71
2021/12/31 12:12:08;;;;;;;9.80;6.35;;;12.70;99.90;;;;;;5033041;28;20084;-71
2021/12/31 12:14:45;;;;;;;12.55;5.82;;;12.70;99.90;;;;;;5033015;28;20087;-71
2021/12/31 12:17:13;;;;;;;8.27;5.57;;;12.70;99.90;;;;;;5032230;28;20041;-70
2021/12/31 12:19:51;;;;;;;8.63;5.82;;;12.60;99.90;;;;;;5031925;28;20037;-71
2021/12/31 12:22:28;;;;;;;14.85;7.00;;;12.70;99.90;;;;;;5033098;28;20076;-71
2021/12/31 12:24:56;;;;;;;11.77;6.38;;;12.70;99.90;;;;;;5032188;28;20118;-71
2021/12/31 12:27:22;;;;;;;13.70;5.95;;;12.70;99.90;;;;;;5032551;28;20305;-71
2021/12/31 12:29:49;;;;;;;12.27;6.03;;;12.70;99.90;;;;;;5042017;28;20112;-71
2021/12/31 12:32:17;;;;;;;9.77;6.68;;;12.70;99.90;;;;;;5041218;28;20125;-71
2021/12/31 12:34:43;;;;;;;11.30;5.80;;;12.70;99.90;;;;;;5019662;28;20042;-71
2021/12/31 12:37:10;;;;;;;16.45;6.78;;;12.70;99.90;;;;;;5011945;28;20676;-71
2021/12/31 12:39:36;;;;;;;20.20;7.93;;;12.60;99.90;;;;;;5012040;28;20072;-70
2021/12/31 12:42:04;;;;;;;16.83;8.00;;;12.60;99.90;;;;;;5011539;28;20046;-68
2021/12/31 12:44:29;;;;;;;21.35;7.40;;;12.60;99.90;;;;;;5012589;28;20061;-68
2021/12/31 12:46:57;;;;;;;18.77;8.82;;;12.60;99.90;;;;;;4995471;28;20447;-68
2021/12/31 12:49:26;;;;;;;14.27;8.02;;;12.50;99.90;;;;;;5011591;28;20056;-68
2021/12/31 12:51:52;;;;;;;18.23;9.60;;;12.50;99.90;;;;;;5012442;28;20045;-68